createdAt,value
2023-01-17T00:02:20.740Z,-2.12
2023-01-17T00:05:06.367Z,-2.00
2023-01-17T00:07:51.570Z,-1.98
2023-01-17T00:10:20.852Z,-1.97
2023-01-17T00:12:52.766Z,-2.01
2023-01-17T00:15:21.121Z,-2.00
2023-01-17T00:17:47.834Z,-1.99
2023-01-17T00:20:38.273Z,-1.95
2023-01-17T00:23:27.717Z,-1.96
2023-01-17T00:26:03.543Z,-2.03
2023-01-17T00:28:38.939Z,-2.03
2023-01-17T00:31:08.980Z,-1.97
2023-01-17T00:33:36.415Z,-2.02
2023-01-17T00:36:04.331Z,-2.04
2023-01-17T00:38:33.407Z,-2.05
2023-01-17T00:41:03.947Z,-2.02
2023-01-17T00:43:49.689Z,-2.03
2023-01-17T00:46:35.826Z,-2.10
2023-01-17T00:49:21.137Z,-2.05
2023-01-17T00:52:06.501Z,-2.13
2023-01-17T00:54:51.863Z,-2.12
2023-01-17T00:57:37.271Z,-2.07
2023-01-17T01:00:23.398Z,-2.02
2023-01-17T01:03:08.898Z,-2.01
2023-01-17T01:05:56.446Z,-2.06
2023-01-17T01:08:45.123Z,-2.05
2023-01-17T01:11:36.183Z,-2.03
2023-01-17T01:14:22.570Z,-2.03
2023-01-17T01:17:09.222Z,-1.97
2023-01-17T01:19:54.616Z,-1.94
2023-01-17T01:22:40.097Z,-1.92
2023-01-17T01:25:28.788Z,-1.90
2023-01-17T01:28:31.355Z,-1.97
2023-01-17T01:31:23.903Z,-1.92
2023-01-17T01:33:52.400Z,-1.92
2023-01-17T01:36:19.700Z,-1.90
2023-01-17T01:38:46.503Z,-1.92
2023-01-17T01:41:13.326Z,-1.92
2023-01-17T01:43:47.939Z,-1.89
2023-01-17T01:46:36.521Z,-1.89
2023-01-17T01:49:12.404Z,-1.90
2023-01-17T01:51:43.184Z,-1.95
2023-01-17T01:54:16.724Z,-1.98
2023-01-17T01:56:45.831Z,-1.96
2023-01-17T01:59:13.952Z,-1.92
2023-01-17T02:01:40.977Z,-1.89
2023-01-17T02:04:10.248Z,-1.86
2023-01-17T02:06:43.774Z,-1.95
2023-01-17T02:09:13.534Z,-1.84
2023-01-17T02:11:41.663Z,-1.88
2023-01-17T02:14:09.248Z,-1.97
2023-01-17T02:17:08.979Z,-1.98
2023-01-17T02:19:44.474Z,-1.95
2023-01-17T02:22:14.032Z,-1.93
2023-01-17T02:24:59.643Z,-1.92
2023-01-17T02:27:47.175Z,-1.98
2023-01-17T02:30:29.106Z,-2.00
2023-01-17T02:33:10.092Z,-1.96
2023-01-17T02:35:54.231Z,-1.96
2023-01-17T02:38:34.647Z,-1.89
2023-01-17T02:41:25.841Z,-1.80
2023-01-17T02:43:53.743Z,-1.74
2023-01-17T02:46:20.850Z,-1.74
2023-01-17T02:48:50.856Z,-1.73
2023-01-17T02:51:41.997Z,-1.69
2023-01-17T02:54:27.728Z,-1.68
2023-01-17T02:57:10.014Z,-1.74
2023-01-17T03:00:10.535Z,-1.85
2023-01-17T03:02:56.807Z,-1.78
2023-01-17T03:05:32.811Z,-1.78
2023-01-17T03:08:01.841Z,-1.96
2023-01-17T03:10:31.229Z,-1.87
2023-01-17T03:13:00.282Z,-1.88
2023-01-17T03:15:26.901Z,-1.91
2023-01-17T03:17:58.371Z,-1.93
2023-01-17T03:20:25.156Z,-1.87
2023-01-17T03:22:51.833Z,-1.88
2023-01-17T03:25:20.980Z,-1.84
2023-01-17T03:27:47.788Z,-1.81
2023-01-17T03:30:16.111Z,-1.79
2023-01-17T03:32:42.784Z,-1.73
2023-01-17T03:35:12.001Z,-1.71
2023-01-17T03:37:38.797Z,-1.73
2023-01-17T03:40:06.336Z,-1.69
2023-01-17T03:42:33.076Z,-1.71
2023-01-17T03:44:59.834Z,-1.73
2023-01-17T03:47:26.526Z,-1.74
2023-01-17T03:49:53.370Z,-1.72
2023-01-17T03:52:20.119Z,-1.67
2023-01-17T03:54:46.924Z,-1.66
2023-01-17T03:57:13.675Z,-1.67
2023-01-17T03:59:40.438Z,-1.68
2023-01-17T04:02:14.024Z,-1.67
2023-01-17T04:04:41.189Z,-1.62
2023-01-17T04:07:07.935Z,-1.67
2023-01-17T04:09:35.534Z,-1.65
2023-01-17T04:12:03.075Z,-1.68
2023-01-17T04:14:30.082Z,-1.78
2023-01-17T04:16:57.140Z,-1.63
2023-01-17T04:19:23.942Z,-1.59
2023-01-17T04:21:50.732Z,-1.52
2023-01-17T04:24:18.083Z,-1.52
2023-01-17T04:26:45.072Z,-1.54
2023-01-17T04:29:24.800Z,-1.56
2023-01-17T04:31:51.592Z,-1.56
2023-01-17T04:34:18.491Z,-1.52
2023-01-17T04:36:45.266Z,-1.49
2023-01-17T04:39:12.049Z,-1.47
2023-01-17T04:41:40.609Z,-1.41
2023-01-17T04:44:10.130Z,-1.41
2023-01-17T04:46:36.910Z,-1.39
2023-01-17T04:49:03.680Z,-1.47
2023-01-17T04:51:30.478Z,-1.49
2023-01-17T04:53:57.218Z,-1.49
2023-01-17T04:56:23.977Z,-1.47
2023-01-17T04:58:50.692Z,-1.48
2023-01-17T05:01:19.614Z,-1.51
2023-01-17T05:03:46.292Z,-1.50
2023-01-17T05:06:12.967Z,-1.53
2023-01-17T05:08:39.713Z,-1.62
2023-01-17T05:11:06.647Z,-1.60
2023-01-17T05:16:19.680Z,-1.56
2023-01-17T05:18:46.760Z,-1.54
2023-01-17T05:21:13.543Z,-1.51
2023-01-17T05:23:40.672Z,-1.62
2023-01-17T05:26:07.393Z,-1.68
2023-01-17T05:28:34.121Z,-1.63
2023-01-17T05:31:06.540Z,-1.60
2023-01-17T05:33:36.003Z,-1.53
2023-01-17T05:36:03.836Z,-1.52
2023-01-17T05:38:30.546Z,-1.59
2023-01-17T05:41:00.544Z,-1.59
2023-01-17T05:43:27.940Z,-1.60
2023-01-17T05:45:54.920Z,-1.60
2023-01-17T05:48:21.840Z,-1.52
2023-01-17T05:50:48.754Z,-1.51
2023-01-17T05:53:16.851Z,-1.52
2023-01-17T05:55:44.287Z,-1.42
2023-01-17T05:58:19.664Z,-1.34
2023-01-17T06:00:46.618Z,-1.36
2023-01-17T06:03:13.464Z,-1.28
2023-01-17T06:05:41.095Z,-1.25
2023-01-17T06:08:09.975Z,-1.33
2023-01-17T06:10:36.989Z,-1.19
2023-01-17T06:13:09.775Z,-1.23
2023-01-17T06:15:37.747Z,-1.18
2023-01-17T06:18:09.852Z,-1.22
2023-01-17T06:20:36.767Z,-1.28
2023-01-17T06:23:06.079Z,-1.24
2023-01-17T06:25:38.052Z,-1.13
2023-01-17T06:28:06.403Z,-1.07
2023-01-17T06:30:36.573Z,-1.07
2023-01-17T06:33:04.702Z,-1.17
2023-01-17T06:35:34.064Z,-1.19
2023-01-17T06:38:00.900Z,-1.27
2023-01-17T06:40:31.217Z,-1.19
2023-01-17T06:43:02.184Z,-1.13
2023-01-17T06:45:30.051Z,-1.15
2023-01-17T06:47:59.248Z,-1.15
2023-01-17T06:50:26.303Z,-1.00
2023-01-17T06:53:00.935Z,-1.05
2023-01-17T06:55:28.983Z,-1.06
2023-01-17T06:58:02.164Z,-1.06
2023-01-17T07:00:30.817Z,-1.25
2023-01-17T07:02:58.313Z,-1.12
2023-01-17T07:05:25.204Z,-1.19
2023-01-17T07:07:52.074Z,-1.30
2023-01-17T07:10:18.863Z,-1.11
2023-01-17T07:12:45.779Z,-1.09
2023-01-17T07:15:13.179Z,-1.15
2023-01-17T07:17:42.270Z,-1.01
2023-01-17T07:20:10.341Z,-1.07
2023-01-17T07:22:37.892Z,-1.13
2023-01-17T07:25:05.299Z,-1.17
2023-01-17T07:27:35.563Z,-1.15
2023-01-17T07:30:02.342Z,-1.12
2023-01-17T07:32:30.659Z,-1.07
2023-01-17T07:34:58.231Z,-1.03
2023-01-17T07:37:26.506Z,-0.97
2023-01-17T07:39:53.904Z,-0.93
2023-01-17T07:42:24.225Z,-0.98
2023-01-17T07:47:34.077Z,-0.97
2023-01-17T07:50:01.978Z,-0.97
2023-01-17T07:52:29.491Z,-1.01
2023-01-17T07:54:56.267Z,-0.91
2023-01-17T07:57:25.180Z,-0.87
2023-01-17T07:59:52.377Z,-0.82
2023-01-17T08:02:21.519Z,-0.76
2023-01-17T08:04:49.253Z,-0.83
2023-01-17T08:07:16.497Z,-0.81
2023-01-17T08:09:46.771Z,-0.78
2023-01-17T08:12:13.896Z,-0.73
2023-01-17T08:14:48.051Z,-0.71
2023-01-17T08:17:18.677Z,-0.75
2023-01-17T08:19:47.960Z,-0.76
2023-01-17T08:22:14.664Z,-0.77
2023-01-17T08:24:42.268Z,-0.71
2023-01-17T08:27:09.231Z,-0.67
2023-01-17T08:29:36.269Z,-0.61
2023-01-17T08:32:03.600Z,-0.61
2023-01-17T08:34:37.553Z,-0.68
2023-01-17T08:37:04.354Z,-0.62
2023-01-17T08:39:31.059Z,-0.56
2023-01-17T08:41:57.920Z,-0.49
2023-01-17T08:44:24.777Z,-0.47
2023-01-17T08:46:51.551Z,-0.40
2023-01-17T08:49:18.263Z,-0.35
2023-01-17T08:51:45.037Z,-0.37
2023-01-17T08:54:17.504Z,-0.36
2023-01-17T08:56:44.732Z,-0.38
2023-01-17T08:59:11.782Z,-0.44
2023-01-17T09:01:42.148Z,-0.50
2023-01-17T09:04:09.937Z,-0.59
2023-01-17T09:06:44.564Z,-0.45
2023-01-17T09:09:11.897Z,-0.42
2023-01-17T09:11:38.854Z,-0.45
2023-01-17T09:14:05.790Z,-0.40
2023-01-17T09:16:32.584Z,-0.38
2023-01-17T09:19:00.120Z,-0.30
2023-01-17T09:21:27.164Z,-0.27
2023-01-17T09:23:54.926Z,-0.24
2023-01-17T09:26:28.235Z,-0.19
2023-01-17T09:28:55.408Z,-0.19
2023-01-17T09:31:23.397Z,-0.15
2023-01-17T09:33:51.604Z,-0.11
2023-01-17T09:36:18.399Z,-0.15
2023-01-17T09:38:45.235Z,-0.14
2023-01-17T09:41:24.329Z,-0.13
2023-01-17T09:43:56.969Z,-0.26
2023-01-17T09:46:29.187Z,-0.19
2023-01-17T09:49:07.625Z,-0.22
2023-01-17T09:51:35.698Z,-0.21
2023-01-17T09:54:05.230Z,-0.05
2023-01-17T09:56:46.257Z,-0.01
2023-01-17T09:59:45.920Z,0.09
2023-01-17T10:02:20.144Z,0.12
2023-01-17T10:05:08.501Z,0.12
2023-01-17T10:08:00.266Z,0.13
2023-01-17T10:10:27.542Z,0.10
2023-01-17T10:12:58.926Z,0.13
2023-01-17T10:15:25.655Z,0.20
2023-01-17T10:18:07.208Z,0.25
2023-01-17T10:20:40.077Z,0.32
2023-01-17T10:23:19.126Z,0.35
2023-01-17T10:25:51.445Z,0.39
2023-01-17T10:28:57.201Z,0.37
2023-01-17T10:31:31.226Z,0.38
2023-01-17T10:34:04.816Z,0.43
2023-01-17T10:36:38.488Z,0.42
2023-01-17T10:39:15.995Z,0.40
2023-01-17T10:41:46.469Z,0.40
2023-01-17T10:44:45.288Z,0.38
2023-01-17T10:47:11.839Z,0.34
2023-01-17T10:49:49.223Z,0.35
2023-01-17T10:52:21.450Z,0.38
2023-01-17T10:55:09.235Z,0.33
2023-01-17T10:57:40.558Z,0.29
2023-01-17T11:00:44.143Z,0.34
2023-01-17T11:03:13.853Z,0.32
2023-01-17T11:05:42.979Z,0.28
2023-01-17T11:08:15.610Z,0.43
2023-01-17T11:10:44.632Z,0.48
2023-01-17T11:13:25.215Z,0.55
2023-01-17T11:16:00.167Z,0.54
2023-01-17T11:18:30.464Z,0.48
2023-01-17T11:21:18.900Z,0.47
2023-01-17T11:23:57.739Z,0.49
2023-01-17T11:26:30.431Z,0.47
2023-01-17T11:29:36.805Z,0.50
2023-01-17T11:32:32.631Z,0.47
2023-01-17T11:35:05.591Z,0.52
2023-01-17T11:37:33.303Z,0.53
2023-01-17T11:40:15.152Z,0.51
2023-01-17T11:42:41.939Z,0.57
2023-01-17T11:45:37.234Z,0.63
2023-01-17T11:48:13.361Z,0.67
2023-01-17T11:51:04.028Z,0.63
2023-01-17T11:53:38.421Z,0.64
2023-01-17T11:56:33.748Z,0.67
2023-01-17T11:59:12.693Z,0.71
2023-01-17T12:02:01.152Z,0.73
2023-01-17T12:04:30.878Z,0.76
2023-01-17T12:07:15.861Z,0.76
2023-01-17T12:09:53.723Z,0.78
2023-01-17T12:12:58.255Z,0.82
2023-01-17T12:16:03.108Z,0.83
2023-01-17T12:18:35.935Z,0.82
2023-01-17T12:21:17.731Z,0.82
2023-01-17T12:24:00.727Z,0.85
2023-01-17T12:26:36.257Z,0.81
2023-01-17T12:29:21.040Z,0.85
2023-01-17T12:32:21.959Z,0.83
2023-01-17T12:35:04.328Z,0.88
2023-01-17T12:37:43.097Z,0.91
2023-01-17T12:40:19.053Z,0.95
2023-01-17T12:43:04.815Z,0.97
2023-01-17T12:45:44.879Z,0.93
2023-01-17T12:48:16.035Z,0.92
2023-01-17T12:51:20.533Z,0.94
2023-01-17T12:53:55.769Z,0.99
2023-01-17T12:56:29.097Z,0.98
2023-01-17T12:59:05.612Z,0.95
2023-01-17T13:01:43.265Z,0.97
2023-01-17T13:04:42.005Z,0.97
2023-01-17T13:07:26.465Z,0.98
2023-01-17T13:10:19.821Z,1.03
2023-01-17T13:12:49.297Z,0.99
2023-01-17T13:15:18.977Z,0.96
2023-01-17T13:17:54.786Z,0.94
2023-01-17T13:20:43.669Z,0.95
2023-01-17T13:23:12.902Z,0.93
2023-01-17T13:25:50.213Z,0.93
2023-01-17T13:28:58.410Z,0.92
2023-01-17T13:31:25.203Z,0.91
2023-01-17T13:33:51.884Z,0.89
2023-01-17T13:36:30.029Z,0.90
2023-01-17T13:39:22.850Z,0.92
2023-01-17T13:41:56.685Z,0.86
2023-01-17T13:44:27.576Z,0.93
2023-01-17T13:47:02.855Z,0.99
2023-01-17T13:49:31.836Z,1.02
2023-01-17T13:52:12.435Z,1.02
2023-01-17T13:54:52.337Z,1.01
2023-01-17T13:57:43.806Z,1.03
2023-01-17T14:00:16.199Z,1.00
2023-01-17T14:02:43.667Z,0.96
2023-01-17T14:05:22.992Z,1.08
2023-01-17T14:07:52.503Z,1.09
2023-01-17T14:10:45.334Z,1.09
2023-01-17T14:13:35.482Z,1.09
2023-01-17T14:16:06.824Z,1.02
2023-01-17T14:18:36.860Z,0.99
2023-01-17T14:21:09.992Z,0.97
2023-01-17T14:24:05.599Z,1.00
2023-01-17T14:26:34.366Z,1.06
2023-01-17T14:29:43.530Z,1.06
2023-01-17T14:32:13.921Z,1.02
2023-01-17T14:34:41.122Z,1.00
2023-01-17T14:38:03.098Z,1.05
2023-01-17T14:40:33.310Z,1.06
2023-01-17T14:43:11.660Z,1.07
2023-01-17T14:45:39.514Z,1.05
2023-01-17T14:48:14.621Z,1.05
2023-01-17T14:50:46.477Z,1.05
2023-01-17T14:53:15.295Z,1.05
2023-01-17T14:55:49.342Z,1.03
2023-01-17T14:58:36.515Z,0.99
2023-01-17T15:01:05.499Z,0.97
2023-01-17T15:03:35.359Z,0.95
2023-01-17T15:06:22.633Z,0.99
2023-01-17T15:08:51.892Z,1.01
2023-01-17T15:11:24.387Z,1.03
2023-01-17T15:13:55.019Z,1.04
2023-01-17T15:16:26.009Z,1.03
2023-01-17T15:18:55.031Z,1.03
2023-01-17T15:21:23.387Z,1.05
2023-01-17T15:23:56.681Z,1.07
2023-01-17T15:26:40.574Z,1.05
2023-01-17T15:29:12.422Z,0.97
2023-01-17T15:31:39.114Z,0.95
2023-01-17T15:34:08.415Z,0.97
2023-01-17T15:36:35.700Z,0.98
2023-01-17T15:39:06.332Z,0.95
2023-01-17T15:41:38.260Z,0.96
2023-01-17T15:44:07.278Z,0.95
2023-01-17T15:46:41.324Z,0.95
2023-01-17T15:49:16.074Z,0.95
2023-01-17T15:52:08.832Z,0.94
2023-01-17T15:54:43.362Z,0.94
2023-01-17T15:57:32.285Z,0.90
2023-01-17T16:00:26.415Z,0.83
2023-01-17T16:02:57.864Z,0.66
2023-01-17T16:05:33.668Z,0.67
2023-01-17T16:08:03.413Z,0.69
2023-01-17T16:10:35.839Z,0.74
2023-01-17T16:13:04.735Z,0.78
2023-01-17T16:15:34.919Z,0.73
2023-01-17T16:18:06.774Z,0.71
2023-01-17T16:20:51.897Z,0.67
2023-01-17T16:23:18.660Z,0.68
2023-01-17T16:25:46.332Z,0.63
2023-01-17T16:28:14.885Z,0.66
2023-01-17T16:30:41.877Z,0.66
2023-01-17T16:33:12.275Z,0.56
2023-01-17T16:35:42.189Z,0.56
2023-01-17T16:38:15.602Z,0.67
2023-01-17T16:40:44.531Z,0.73
2023-01-17T16:43:12.680Z,0.82
2023-01-17T16:45:45.601Z,0.86
2023-01-17T16:48:13.040Z,0.86
2023-01-17T16:50:49.478Z,0.67
2023-01-17T16:53:17.860Z,0.75
2023-01-17T16:55:44.867Z,0.74
2023-01-17T16:58:15.469Z,0.74
2023-01-17T17:00:42.831Z,0.73
2023-01-17T17:03:17.868Z,0.72
2023-01-17T17:05:47.308Z,0.72
2023-01-17T17:08:15.445Z,0.68
2023-01-17T17:10:42.308Z,0.69
2023-01-17T17:13:09.109Z,0.73
2023-01-17T17:15:42.386Z,0.78
2023-01-17T17:18:16.784Z,0.73
2023-01-17T17:20:45.842Z,0.68
2023-01-17T17:23:12.494Z,0.73
2023-01-17T17:25:40.015Z,0.73
2023-01-17T17:30:50.389Z,0.74
2023-01-17T17:33:17.245Z,0.76
2023-01-17T17:35:44.007Z,0.75
2023-01-17T17:38:11.110Z,0.72
2023-01-17T17:40:40.245Z,0.73
2023-01-17T17:43:06.951Z,0.76
2023-01-17T17:45:33.709Z,0.79
2023-01-17T17:48:00.437Z,0.77
2023-01-17T17:50:27.238Z,0.77
2023-01-17T17:52:53.953Z,0.77
2023-01-17T17:55:20.680Z,0.73
2023-01-17T17:57:47.475Z,0.73
2023-01-17T18:00:17.285Z,0.77
2023-01-17T18:02:43.994Z,0.78
2023-01-17T18:05:10.799Z,0.80
2023-01-17T18:07:37.616Z,0.77
2023-01-17T18:10:04.937Z,0.77
2023-01-17T18:12:31.673Z,0.72
2023-01-17T18:14:58.402Z,0.72
2023-01-17T18:17:25.277Z,0.75
2023-01-17T18:19:52.734Z,0.72
2023-01-17T18:22:19.493Z,0.74
2023-01-17T18:24:46.343Z,0.76
2023-01-17T18:27:29.617Z,0.72
2023-01-17T18:29:56.366Z,0.83
2023-01-17T18:32:23.242Z,0.81
2023-01-17T18:34:51.598Z,0.80
2023-01-17T18:37:18.351Z,0.75
2023-01-17T18:39:45.108Z,0.77
2023-01-17T18:42:18.964Z,0.75
2023-01-17T18:44:45.703Z,0.75
2023-01-17T18:47:13.127Z,0.63
2023-01-17T18:49:39.954Z,0.85
2023-01-17T18:52:08.072Z,0.85
2023-01-17T18:54:34.985Z,0.75
2023-01-17T18:57:01.754Z,0.87
2023-01-17T18:59:31.110Z,0.86
2023-01-17T19:01:58.846Z,0.90
2023-01-17T19:04:28.052Z,0.92
2023-01-17T19:06:55.675Z,0.90
2023-01-17T19:09:22.835Z,0.87
2023-01-17T19:11:50.201Z,0.80
2023-01-17T19:14:16.970Z,0.75
2023-01-17T19:16:44.316Z,0.73
2023-01-17T19:19:15.226Z,0.73
2023-01-17T19:21:42.302Z,0.73
2023-01-17T19:24:13.223Z,0.74
2023-01-17T19:26:40.447Z,0.67
2023-01-17T19:29:07.238Z,0.66
2023-01-17T19:31:39.676Z,0.75
2023-01-17T19:34:06.527Z,0.78
2023-01-17T19:36:35.661Z,0.77
2023-01-17T19:39:06.157Z,0.74
2023-01-17T19:41:40.912Z,0.76
2023-01-17T19:44:09.422Z,0.80
2023-01-17T19:46:37.339Z,0.83
2023-01-17T19:49:06.773Z,0.88
2023-01-17T19:54:18.032Z,0.84
2023-01-17T19:56:44.886Z,0.81
2023-01-17T19:59:15.874Z,0.75
2023-01-17T20:01:42.839Z,0.75
2023-01-17T20:04:09.673Z,0.82
2023-01-17T20:06:36.975Z,0.70
2023-01-17T20:09:05.916Z,0.80
2023-01-17T20:11:34.842Z,0.78
2023-01-17T20:14:01.817Z,0.83
2023-01-17T20:16:31.638Z,0.78
2023-01-17T20:18:59.253Z,0.84
2023-01-17T20:21:27.917Z,0.83
2023-01-17T20:23:56.243Z,0.80
2023-01-17T20:26:35.080Z,0.74
2023-01-17T20:29:03.474Z,0.62
2023-01-17T20:31:31.115Z,0.58
2023-01-17T20:33:58.282Z,0.58
2023-01-17T20:36:26.785Z,0.56
2023-01-17T20:38:56.787Z,0.54
2023-01-17T20:42:13.865Z,0.52
2023-01-17T20:44:32.608Z,0.49
2023-01-17T20:46:59.335Z,0.54
2023-01-17T20:49:26.207Z,0.51
2023-01-17T20:51:55.727Z,0.53
2023-01-17T20:54:23.586Z,0.45
2023-01-17T20:56:50.685Z,0.49
2023-01-17T20:59:19.832Z,0.41
2023-01-17T21:01:49.010Z,0.41
2023-01-17T21:04:16.727Z,0.45
2023-01-17T21:06:44.104Z,0.46
2023-01-17T21:09:15.333Z,0.45
2023-01-17T21:11:46.525Z,0.45
2023-01-17T21:14:13.426Z,0.44
2023-01-17T21:16:40.272Z,0.46
2023-01-17T21:19:20.889Z,0.39
2023-01-17T21:21:48.599Z,0.36
2023-01-17T21:24:20.445Z,0.39
2023-01-17T21:26:47.277Z,0.26
2023-01-17T21:29:16.204Z,0.19
2023-01-17T21:31:43.140Z,0.21
2023-01-17T21:34:11.734Z,0.26
2023-01-17T21:36:41.077Z,0.29
2023-01-17T21:39:15.920Z,0.23
2023-01-17T21:41:45.823Z,0.25
2023-01-17T21:44:15.978Z,0.17
2023-01-17T21:46:42.818Z,0.33
2023-01-17T21:49:12.998Z,0.38
2023-01-17T21:51:53.619Z,0.42
2023-01-17T21:54:51.987Z,0.34
2023-01-17T21:57:40.780Z,0.31
2023-01-17T22:00:12.111Z,0.27
2023-01-17T22:02:41.953Z,0.24
2023-01-17T22:05:09.594Z,0.26
2023-01-17T22:07:36.400Z,0.26
2023-01-17T22:10:03.202Z,0.31
2023-01-17T22:12:30.169Z,0.25
2023-01-17T22:14:57.002Z,0.16
2023-01-17T22:17:23.961Z,0.09
2023-01-17T22:19:50.776Z,0.06
2023-01-17T22:22:17.519Z,0.07
2023-01-17T22:24:44.372Z,0.05
2023-01-17T22:27:11.164Z,0.05
2023-01-17T22:29:38.048Z,0.07
2023-01-17T22:32:05.306Z,0.09
2023-01-17T22:34:34.648Z,0.07
2023-01-17T22:37:04.073Z,0.06
2023-01-17T22:39:30.812Z,0.03
2023-01-17T22:41:57.618Z,0.04
2023-01-17T22:44:24.412Z,0.04
2023-01-17T22:46:51.187Z,0.09
2023-01-17T22:49:20.732Z,0.08
2023-01-17T22:51:47.475Z,0.04
2023-01-17T22:54:14.963Z,-0.01
2023-01-17T22:56:41.999Z,-0.11
2023-01-17T22:59:11.732Z,-0.16
2023-01-17T23:01:41.668Z,-0.16
2023-01-17T23:04:12.584Z,-0.13
2023-01-17T23:06:41.071Z,-0.07
2023-01-17T23:09:14.511Z,-0.04
2023-01-17T23:11:45.080Z,0.02
2023-01-17T23:14:20.750Z,-0.02
2023-01-17T23:17:14.740Z,-0.01
2023-01-17T23:19:53.238Z,0.01
2023-01-17T23:22:27.094Z,-0.01
2023-01-17T23:24:55.161Z,-0.08
2023-01-17T23:27:45.655Z,-0.05
2023-01-17T23:30:18.148Z,-0.11
2023-01-17T23:32:50.402Z,-0.11
2023-01-17T23:35:19.422Z,-0.12
2023-01-17T23:38:08.394Z,-0.12
2023-01-17T23:40:38.446Z,-0.15
2023-01-17T23:43:23.836Z,-0.08
2023-01-17T23:45:56.259Z,-0.01
2023-01-17T23:48:25.789Z,-0.06
2023-01-17T23:51:13.003Z,-0.08
2023-01-17T23:53:40.783Z,-0.08
2023-01-17T23:56:14.675Z,-0.11
2023-01-17T23:58:43.148Z,-0.16
